createdAt,value
2023-04-16T00:01:41.042Z,6.04
2023-04-16T00:04:09.034Z,5.96
2023-04-16T00:06:37.339Z,5.90
2023-04-16T00:09:05.436Z,5.85
2023-04-16T00:11:33.283Z,5.78
2023-04-16T00:14:01.382Z,5.72
2023-04-16T00:16:29.414Z,5.69
2023-04-16T00:18:57.307Z,5.67
2023-04-16T00:21:25.287Z,5.68
2023-04-16T00:23:53.841Z,5.69
2023-04-16T00:26:21.726Z,5.69
2023-04-16T00:28:49.579Z,5.69
2023-04-16T00:31:17.572Z,5.71
2023-04-16T00:33:45.473Z,5.72
2023-04-16T00:36:13.359Z,5.74
2023-04-16T00:38:41.402Z,5.76
2023-04-16T00:41:09.339Z,5.73
2023-04-16T00:43:37.593Z,5.70
2023-04-16T00:46:08.849Z,5.68
2023-04-16T00:48:38.755Z,5.65
2023-04-16T00:51:08.773Z,5.61
2023-04-16T00:53:36.683Z,5.56
2023-04-16T00:56:07.433Z,5.52
2023-04-16T00:58:35.899Z,5.48
2023-04-16T01:01:04.012Z,5.42
2023-04-16T01:03:39.789Z,5.36
2023-04-16T01:06:07.980Z,5.32
2023-04-16T01:08:35.967Z,5.28
2023-04-16T01:11:04.244Z,5.26
2023-04-16T01:13:33.841Z,5.22
2023-04-16T01:16:01.850Z,5.19
2023-04-16T01:18:29.746Z,5.17
2023-04-16T01:20:57.680Z,5.15
2023-04-16T01:23:26.032Z,5.16
2023-04-16T01:25:54.267Z,5.18
2023-04-16T01:28:23.069Z,5.20
2023-04-16T01:30:51.125Z,5.22
2023-04-16T01:33:41.696Z,5.23
2023-04-16T01:36:11.085Z,5.26
2023-04-16T01:38:39.150Z,5.30
2023-04-16T01:41:07.459Z,5.29
2023-04-16T01:43:38.425Z,5.27
2023-04-16T01:46:18.333Z,5.24
2023-04-16T01:48:47.334Z,5.21
2023-04-16T01:51:15.364Z,5.17
2023-04-16T01:53:43.256Z,5.13
2023-04-16T01:56:11.626Z,5.08
2023-04-16T01:58:39.974Z,5.03
2023-04-16T02:01:09.183Z,5.00
2023-04-16T02:03:39.112Z,4.95
2023-04-16T02:06:07.357Z,4.89
2023-04-16T02:08:37.094Z,4.84
2023-04-16T02:11:05.149Z,4.79
2023-04-16T02:13:33.375Z,4.75
2023-04-16T02:16:01.319Z,4.74
2023-04-16T02:18:46.165Z,4.73
2023-04-16T02:21:15.519Z,4.73
2023-04-16T02:23:47.597Z,4.74
2023-04-16T02:26:15.530Z,4.75
2023-04-16T02:28:44.181Z,4.75
2023-04-16T02:31:12.843Z,4.75
2023-04-16T02:33:44.562Z,4.77
2023-04-16T02:36:13.111Z,4.80
2023-04-16T02:38:41.263Z,4.78
2023-04-16T02:41:09.520Z,4.79
2023-04-16T02:43:37.595Z,4.82
2023-04-16T02:46:06.032Z,4.83
2023-04-16T02:48:34.051Z,4.84
2023-04-16T02:51:02.059Z,4.82
2023-04-16T02:53:29.892Z,4.80
2023-04-16T02:55:57.931Z,4.76
2023-04-16T02:58:26.741Z,4.74
2023-04-16T03:00:55.325Z,4.68
2023-04-16T03:03:23.785Z,4.57
2023-04-16T03:05:52.241Z,4.48
2023-04-16T03:08:20.226Z,4.44
2023-04-16T03:10:48.168Z,4.42
2023-04-16T03:13:16.366Z,4.40
2023-04-16T03:15:50.069Z,4.38
2023-04-16T03:18:18.356Z,4.38
2023-04-16T03:20:46.235Z,4.37
2023-04-16T03:23:14.262Z,4.38
2023-04-16T03:25:43.810Z,4.38
2023-04-16T03:28:12.108Z,4.38
2023-04-16T03:30:40.209Z,4.38
2023-04-16T03:33:09.068Z,4.34
2023-04-16T03:35:37.051Z,4.26
2023-04-16T03:38:05.002Z,4.23
2023-04-16T03:40:32.979Z,4.22
2023-04-16T03:43:01.121Z,4.19
2023-04-16T03:45:29.625Z,4.16
2023-04-16T03:47:58.121Z,4.13
2023-04-16T03:50:26.905Z,4.11
2023-04-16T03:52:54.926Z,4.09
2023-04-16T03:55:23.066Z,4.06
2023-04-16T03:57:51.063Z,4.02
2023-04-16T04:00:19.120Z,3.99
2023-04-16T04:02:58.552Z,3.98
2023-04-16T04:05:26.928Z,3.98
2023-04-16T04:07:54.847Z,3.97
2023-04-16T04:10:23.264Z,3.96
2023-04-16T04:12:51.622Z,3.99
2023-04-16T04:15:19.602Z,4.03
2023-04-16T04:17:48.514Z,4.09
2023-04-16T04:20:16.854Z,4.14
2023-04-16T04:22:46.090Z,4.20
2023-04-16T04:25:14.343Z,4.25
2023-04-16T04:27:43.125Z,4.27
2023-04-16T04:30:11.684Z,4.29
2023-04-16T04:32:40.049Z,4.38
2023-04-16T04:35:08.386Z,4.43
2023-04-16T04:37:37.040Z,4.43
2023-04-16T04:40:12.222Z,4.45
2023-04-16T04:42:40.139Z,4.51
2023-04-16T04:45:09.287Z,4.59
2023-04-16T04:47:37.435Z,4.68
2023-04-16T04:50:06.598Z,4.76
2023-04-16T04:52:35.084Z,4.85
2023-04-16T04:55:03.843Z,4.93
2023-04-16T04:57:32.016Z,5.01
2023-04-16T04:59:59.975Z,5.08
2023-04-16T05:02:28.774Z,5.15
2023-04-16T05:04:56.796Z,5.20
2023-04-16T05:07:24.857Z,5.25
2023-04-16T05:09:52.754Z,5.27
2023-04-16T05:12:20.882Z,5.35
2023-04-16T05:14:48.777Z,5.47
2023-04-16T05:17:16.699Z,5.60
2023-04-16T05:19:44.609Z,5.76
2023-04-16T05:22:12.814Z,5.93
2023-04-16T05:24:41.344Z,6.12
2023-04-16T05:27:09.697Z,6.29
2023-04-16T05:29:37.580Z,6.44
2023-04-16T05:32:05.830Z,6.63
2023-04-16T05:34:33.799Z,6.83
2023-04-16T05:37:01.705Z,6.98
2023-04-16T05:39:29.729Z,7.17
2023-04-16T05:41:57.549Z,7.42
2023-04-16T05:44:26.131Z,7.85
2023-04-16T05:46:54.107Z,8.41
2023-04-16T05:49:22.398Z,8.99
2023-04-16T05:51:51.056Z,9.42
2023-04-16T05:54:19.264Z,9.85
2023-04-16T05:56:47.293Z,10.33
2023-04-16T05:59:15.392Z,10.84
2023-04-16T06:01:43.276Z,11.33
2023-04-16T06:04:11.425Z,11.77
2023-04-16T06:06:40.418Z,12.36
2023-04-16T06:09:08.590Z,12.93
2023-04-16T06:11:36.839Z,13.40
2023-04-16T06:14:04.852Z,13.85
2023-04-16T06:16:32.906Z,14.15
2023-04-16T06:19:00.963Z,14.20
2023-04-16T06:21:29.979Z,14.16
2023-04-16T06:23:57.969Z,14.34
2023-04-16T06:26:26.032Z,14.36
2023-04-16T06:28:53.945Z,14.50
2023-04-16T06:31:22.024Z,14.61
2023-04-16T06:33:50.258Z,14.67
2023-04-16T06:36:18.359Z,14.60
2023-04-16T06:38:46.720Z,14.68
2023-04-16T06:41:15.099Z,14.90
2023-04-16T06:43:42.971Z,14.96
2023-04-16T06:46:11.568Z,14.91
2023-04-16T06:48:39.510Z,15.00
2023-04-16T06:51:07.537Z,15.09
2023-04-16T06:53:37.776Z,15.29
2023-04-16T06:56:06.421Z,15.41
2023-04-16T06:58:34.372Z,15.48
2023-04-16T07:01:02.939Z,15.61
2023-04-16T07:03:31.372Z,15.52
2023-04-16T07:05:59.618Z,15.42
2023-04-16T07:08:27.601Z,15.47
2023-04-16T07:10:55.956Z,15.53
2023-04-16T07:13:24.486Z,15.49
2023-04-16T07:15:52.380Z,15.46
2023-04-16T07:18:20.850Z,15.42
2023-04-16T07:20:49.402Z,15.49
2023-04-16T07:23:17.612Z,15.55
2023-04-16T07:25:46.011Z,15.49
2023-04-16T07:28:16.799Z,15.29
2023-04-16T07:30:45.603Z,15.04
2023-04-16T07:33:13.694Z,15.00
2023-04-16T07:35:41.712Z,14.98
2023-04-16T07:38:09.703Z,14.95
2023-04-16T07:40:37.752Z,14.78
2023-04-16T07:43:05.959Z,14.56
2023-04-16T07:45:34.079Z,14.47
2023-04-16T07:48:02.054Z,14.17
2023-04-16T07:50:30.124Z,13.99
2023-04-16T07:52:58.064Z,13.96
2023-04-16T07:55:25.874Z,14.09
2023-04-16T07:57:54.063Z,14.10
2023-04-16T08:00:21.873Z,14.15
2023-04-16T08:02:49.974Z,14.26
2023-04-16T08:05:18.348Z,14.41
2023-04-16T08:07:46.206Z,14.54
2023-04-16T08:10:14.245Z,14.62
2023-04-16T08:12:42.375Z,14.79
2023-04-16T08:15:10.508Z,14.91
2023-04-16T08:17:38.945Z,15.07
2023-04-16T08:20:07.772Z,15.12
2023-04-16T08:22:35.924Z,15.19
2023-04-16T08:25:04.659Z,15.22
2023-04-16T08:27:32.569Z,15.30
2023-04-16T08:30:00.470Z,15.40
2023-04-16T08:32:28.541Z,15.56
2023-04-16T08:34:57.515Z,15.59
2023-04-16T08:37:26.432Z,15.51
2023-04-16T08:39:54.550Z,15.42
2023-04-16T08:42:32.230Z,15.51
2023-04-16T08:45:11.370Z,15.76
2023-04-16T08:47:41.089Z,15.96
2023-04-16T08:50:12.338Z,16.12
2023-04-16T08:52:49.490Z,16.12
2023-04-16T08:55:19.912Z,16.02
2023-04-16T08:57:53.665Z,15.99
2023-04-16T09:00:22.112Z,15.84
2023-04-16T09:02:51.678Z,15.77
2023-04-16T09:05:22.991Z,15.80
2023-04-16T09:07:52.776Z,15.99
2023-04-16T09:10:21.341Z,16.08
2023-04-16T09:12:49.804Z,16.13
2023-04-16T09:15:20.753Z,16.22
2023-04-16T09:17:48.946Z,16.38
2023-04-16T09:20:17.092Z,16.48
2023-04-16T09:22:46.623Z,16.58
2023-04-16T09:25:15.083Z,16.65
2023-04-16T09:27:44.005Z,16.68
2023-04-16T09:30:27.291Z,16.68
2023-04-16T09:33:16.893Z,16.68
2023-04-16T09:35:47.662Z,16.65
2023-04-16T09:38:16.035Z,16.75
2023-04-16T09:40:44.251Z,16.89
2023-04-16T09:43:14.249Z,17.01
2023-04-16T09:45:51.015Z,17.19
2023-04-16T09:48:32.905Z,17.39
2023-04-16T09:51:01.380Z,17.47
2023-04-16T09:53:31.974Z,17.51
2023-04-16T09:56:01.758Z,17.60
2023-04-16T09:58:29.886Z,17.66
2023-04-16T10:01:02.553Z,17.62
2023-04-16T10:03:32.959Z,17.62
2023-04-16T10:06:07.317Z,17.71
2023-04-16T10:08:36.344Z,17.75
2023-04-16T10:11:04.661Z,17.73
2023-04-16T10:13:32.719Z,17.79
2023-04-16T10:16:00.790Z,17.78
2023-04-16T10:18:29.670Z,17.83
2023-04-16T10:20:57.810Z,17.75
2023-04-16T10:23:26.668Z,17.77
2023-04-16T10:25:57.394Z,17.90
2023-04-16T10:28:26.030Z,17.94
2023-04-16T10:30:56.427Z,17.93
2023-04-16T10:33:30.448Z,18.08
2023-04-16T10:36:12.756Z,18.22
2023-04-16T10:38:46.027Z,18.28
2023-04-16T10:41:14.265Z,18.44
2023-04-16T10:43:47.494Z,18.54
2023-04-16T10:46:24.549Z,18.62
2023-04-16T10:48:57.127Z,18.72
2023-04-16T10:51:29.487Z,18.65
2023-04-16T10:54:11.347Z,18.55
2023-04-16T10:56:39.283Z,18.45
2023-04-16T10:59:10.456Z,18.55
2023-04-16T11:01:46.778Z,18.50
2023-04-16T11:04:20.995Z,18.43
2023-04-16T11:07:14.089Z,18.46
2023-04-16T11:09:48.219Z,18.50
2023-04-16T11:12:27.891Z,18.62
2023-04-16T11:15:10.437Z,18.77
2023-04-16T11:17:43.476Z,18.77
2023-04-16T11:20:26.223Z,18.86
2023-04-16T11:22:56.245Z,19.00
2023-04-16T11:25:26.223Z,19.05
2023-04-16T11:27:54.933Z,19.06
2023-04-16T11:30:31.693Z,19.09
2023-04-16T11:33:02.245Z,18.96
2023-04-16T11:35:30.346Z,18.84
2023-04-16T11:37:58.795Z,18.84
2023-04-16T11:40:31.562Z,18.90
2023-04-16T11:43:18.004Z,18.95
2023-04-16T11:46:10.293Z,18.89
2023-04-16T11:48:52.904Z,18.99
2023-04-16T11:51:23.320Z,19.03
2023-04-16T11:53:53.436Z,18.99
2023-04-16T11:56:33.383Z,19.12
2023-04-16T11:59:08.820Z,19.11
2023-04-16T12:01:38.483Z,19.22
2023-04-16T12:04:07.468Z,19.27
2023-04-16T12:06:36.304Z,19.20
2023-04-16T12:09:27.459Z,19.29
2023-04-16T12:11:55.556Z,19.39
2023-04-16T12:14:24.000Z,19.49
2023-04-16T12:16:51.879Z,19.49
2023-04-16T12:19:19.933Z,19.43
2023-04-16T12:21:50.143Z,19.33
2023-04-16T12:24:24.276Z,19.19
2023-04-16T12:26:57.709Z,19.19
2023-04-16T12:29:28.161Z,19.16
2023-04-16T12:31:56.334Z,18.97
2023-04-16T12:34:29.003Z,18.95
2023-04-16T12:37:12.986Z,19.05
2023-04-16T12:39:41.483Z,19.11
2023-04-16T12:42:11.566Z,19.18
2023-04-16T12:44:39.558Z,19.13
2023-04-16T12:47:07.612Z,19.10
2023-04-16T12:49:37.078Z,19.15
2023-04-16T12:52:06.067Z,19.24
2023-04-16T12:54:34.243Z,19.29
2023-04-16T12:57:02.269Z,19.37
2023-04-16T12:59:30.147Z,19.47
2023-04-16T13:01:58.255Z,19.54
2023-04-16T13:04:26.902Z,19.56
2023-04-16T13:06:55.166Z,19.59
2023-04-16T13:09:23.415Z,19.58
2023-04-16T13:11:51.628Z,19.53
2023-04-16T13:14:21.182Z,19.54
2023-04-16T13:16:49.216Z,19.58
2023-04-16T13:19:19.202Z,19.46
2023-04-16T13:21:47.177Z,19.33
2023-04-16T13:24:15.085Z,19.38
2023-04-16T13:26:43.633Z,19.41
2023-04-16T13:29:11.911Z,19.39
2023-04-16T13:31:40.606Z,19.35
2023-04-16T13:34:08.529Z,19.28
2023-04-16T13:36:36.466Z,19.16
2023-04-16T13:39:05.399Z,18.99
2023-04-16T13:41:33.278Z,18.70
2023-04-16T13:44:01.174Z,18.26
2023-04-16T13:46:29.554Z,17.86
2023-04-16T13:48:57.823Z,17.55
2023-04-16T13:51:27.593Z,17.25
2023-04-16T13:53:56.422Z,16.99
2023-04-16T13:56:25.257Z,16.74
2023-04-16T13:58:53.481Z,16.54
2023-04-16T14:01:21.932Z,16.31
2023-04-16T14:03:50.505Z,16.19
2023-04-16T14:06:18.697Z,16.10
2023-04-16T14:08:46.662Z,16.00
2023-04-16T14:11:14.784Z,15.88
2023-04-16T14:13:42.868Z,15.80
2023-04-16T14:16:11.028Z,15.70
2023-04-16T14:18:42.442Z,15.62
2023-04-16T14:21:10.565Z,15.59
2023-04-16T14:23:38.530Z,15.58
2023-04-16T14:26:06.466Z,15.60
2023-04-16T14:28:35.693Z,15.67
2023-04-16T14:31:03.612Z,15.72
2023-04-16T14:33:32.483Z,15.70
2023-04-16T14:36:02.680Z,15.66
2023-04-16T14:38:32.178Z,15.66
2023-04-16T14:41:00.664Z,15.67
2023-04-16T14:43:28.734Z,15.72
2023-04-16T14:45:58.824Z,15.74
2023-04-16T14:48:27.045Z,15.80
2023-04-16T14:50:55.073Z,15.84
2023-04-16T14:53:24.837Z,15.90
2023-04-16T14:55:53.554Z,15.95
2023-04-16T14:58:22.141Z,16.00
2023-04-16T15:00:50.277Z,16.07
2023-04-16T15:03:18.333Z,16.13
2023-04-16T15:05:50.916Z,16.18
2023-04-16T15:08:18.847Z,16.22
2023-04-16T15:10:46.836Z,16.23
2023-04-16T15:13:14.844Z,16.26
2023-04-16T15:15:43.557Z,16.27
2023-04-16T15:18:11.709Z,16.29
2023-04-16T15:20:40.414Z,16.29
2023-04-16T15:23:08.290Z,16.28
2023-04-16T15:25:36.254Z,16.28
2023-04-16T15:28:04.282Z,16.29
2023-04-16T15:30:32.183Z,16.27
2023-04-16T15:33:00.127Z,16.21
2023-04-16T15:35:28.086Z,16.15
2023-04-16T15:37:55.993Z,16.05
2023-04-16T15:40:25.400Z,15.93
2023-04-16T15:42:56.223Z,15.69
2023-04-16T15:45:24.104Z,15.37
2023-04-16T15:47:52.311Z,15.12
2023-04-16T15:50:20.563Z,14.95
2023-04-16T15:52:49.423Z,14.80
2023-04-16T15:55:18.554Z,14.66
2023-04-16T15:57:46.561Z,14.53
2023-04-16T16:00:17.331Z,14.43
2023-04-16T16:02:47.207Z,14.34
2023-04-16T16:05:16.608Z,14.28
2023-04-16T16:07:44.709Z,14.21
2023-04-16T16:10:13.494Z,14.14
2023-04-16T16:12:41.655Z,14.11
2023-04-16T16:15:11.256Z,14.10
2023-04-16T16:17:40.743Z,14.08
2023-04-16T16:20:10.599Z,14.06
2023-04-16T16:22:39.195Z,14.05
2023-04-16T16:25:07.423Z,14.05
2023-04-16T16:27:36.560Z,14.04
2023-04-16T16:30:07.408Z,14.03
2023-04-16T16:32:36.044Z,14.02
2023-04-16T16:35:04.516Z,13.99
2023-04-16T16:37:32.651Z,13.96
2023-04-16T16:40:00.693Z,13.92
2023-04-16T16:42:28.770Z,13.90
2023-04-16T16:44:57.545Z,13.89
2023-04-16T16:47:27.093Z,13.89
2023-04-16T16:49:55.215Z,13.90
2023-04-16T16:52:24.374Z,13.92
2023-04-16T16:54:56.932Z,13.90
2023-04-16T16:57:25.124Z,13.89
2023-04-16T16:59:54.595Z,13.86
2023-04-16T17:02:23.363Z,13.84
2023-04-16T17:04:52.847Z,13.82
2023-04-16T17:07:21.098Z,13.77
2023-04-16T17:09:48.991Z,13.71
2023-04-16T17:12:16.934Z,13.64
2023-04-16T17:14:44.968Z,13.58
2023-04-16T17:17:12.866Z,13.52
2023-04-16T17:19:40.844Z,13.43
2023-04-16T17:22:08.775Z,13.37
2023-04-16T17:24:36.677Z,13.30
2023-04-16T17:27:04.647Z,13.25
2023-04-16T17:29:32.670Z,13.19
2023-04-16T17:32:01.058Z,13.14
2023-04-16T17:34:29.100Z,13.11
2023-04-16T17:36:56.953Z,13.07
2023-04-16T17:39:25.074Z,13.05
2023-04-16T17:41:54.914Z,13.03
2023-04-16T17:44:25.730Z,13.03
2023-04-16T17:46:53.682Z,13.05
2023-04-16T17:49:21.760Z,13.07
2023-04-16T17:51:49.740Z,13.09
2023-04-16T17:54:17.603Z,13.13
2023-04-16T17:56:46.362Z,13.18
2023-04-16T17:59:14.306Z,13.27
2023-04-16T18:01:42.400Z,13.35
2023-04-16T18:04:11.107Z,13.41
2023-04-16T18:06:39.581Z,13.45
2023-04-16T18:09:07.524Z,13.49
2023-04-16T18:11:35.988Z,13.51
2023-04-16T18:14:04.253Z,13.52
2023-04-16T18:16:32.372Z,13.52
2023-04-16T18:19:00.264Z,13.50
2023-04-16T18:21:29.805Z,13.47
2023-04-16T18:23:58.129Z,13.45
2023-04-16T18:26:26.088Z,13.43
2023-04-16T18:28:57.521Z,13.41
2023-04-16T18:31:25.868Z,13.39
2023-04-16T18:33:57.867Z,13.37
2023-04-16T18:36:27.572Z,13.35
2023-04-16T18:39:02.254Z,13.32
2023-04-16T18:41:31.456Z,13.30
2023-04-16T18:43:59.432Z,13.27
2023-04-16T18:46:27.816Z,13.25
2023-04-16T18:48:55.950Z,13.22
2023-04-16T18:51:24.110Z,13.20
2023-04-16T18:53:52.068Z,13.18
2023-04-16T18:56:20.145Z,13.15
2023-04-16T18:58:48.126Z,13.13
2023-04-16T19:01:16.756Z,13.10
2023-04-16T19:03:45.614Z,13.09
2023-04-16T19:06:13.643Z,13.08
2023-04-16T19:08:41.637Z,13.06
2023-04-16T19:11:09.595Z,13.06
2023-04-16T19:13:38.870Z,13.05
2023-04-16T19:16:11.586Z,13.03
2023-04-16T19:18:39.996Z,13.01
2023-04-16T19:21:10.150Z,12.99
2023-04-16T19:23:38.331Z,12.95
2023-04-16T19:26:06.521Z,12.90
2023-04-16T19:28:34.542Z,12.84
2023-04-16T19:31:02.626Z,12.78
2023-04-16T19:33:31.478Z,12.73
2023-04-16T19:36:00.419Z,12.66
2023-04-16T19:38:29.093Z,12.62
2023-04-16T19:40:56.984Z,12.59
2023-04-16T19:43:24.968Z,12.55
2023-04-16T19:45:54.289Z,12.52
2023-04-16T19:48:22.481Z,12.51
2023-04-16T19:50:50.553Z,12.47
2023-04-16T19:53:18.507Z,12.41
2023-04-16T19:55:46.977Z,12.35
2023-04-16T19:58:15.185Z,12.28
2023-04-16T20:00:43.587Z,12.24
2023-04-16T20:03:11.671Z,12.21
2023-04-16T20:05:39.631Z,12.19
2023-04-16T20:08:07.703Z,12.16
2023-04-16T20:10:36.153Z,12.14
2023-04-16T20:13:05.128Z,12.12
2023-04-16T20:15:33.161Z,12.07
2023-04-16T20:18:01.285Z,12.01
2023-04-16T20:20:29.306Z,11.97
2023-04-16T20:22:58.471Z,11.93
2023-04-16T20:25:26.675Z,11.90
2023-04-16T20:27:54.637Z,11.86
2023-04-16T20:30:24.558Z,11.81
2023-04-16T20:32:52.447Z,11.78
2023-04-16T20:35:20.545Z,11.77
2023-04-16T20:37:48.723Z,11.76
2023-04-16T20:40:16.805Z,11.74
2023-04-16T20:42:47.711Z,11.69
2023-04-16T20:45:16.180Z,11.63
2023-04-16T20:47:44.369Z,11.58
2023-04-16T20:50:12.398Z,11.53
2023-04-16T20:52:40.293Z,11.50
2023-04-16T20:55:08.836Z,11.47
2023-04-16T20:57:36.946Z,11.43
2023-04-16T21:00:09.232Z,11.41
2023-04-16T21:02:37.419Z,11.40
2023-04-16T21:05:09.147Z,11.40
2023-04-16T21:07:37.020Z,11.40
2023-04-16T21:10:05.373Z,11.40
2023-04-16T21:12:33.197Z,11.41
2023-04-16T21:15:01.252Z,11.41
2023-04-16T21:17:29.338Z,11.42
2023-04-16T21:19:57.488Z,11.42
2023-04-16T21:22:25.541Z,11.41
2023-04-16T21:24:53.415Z,11.36
2023-04-16T21:27:21.347Z,11.30
2023-04-16T21:29:49.335Z,11.24
2023-04-16T21:32:17.317Z,11.18
2023-04-16T21:34:45.201Z,11.13
2023-04-16T21:37:13.103Z,11.09
2023-04-16T21:39:41.006Z,11.07
2023-04-16T21:42:08.964Z,11.03
2023-04-16T21:44:36.836Z,11.02
2023-04-16T21:47:05.073Z,11.02
2023-04-16T21:49:33.259Z,10.98
2023-04-16T21:52:02.556Z,10.92
2023-04-16T21:54:30.614Z,10.87
2023-04-16T21:56:58.788Z,10.82
2023-04-16T21:59:26.709Z,10.79
2023-04-16T22:01:54.774Z,10.73
2023-04-16T22:04:26.524Z,10.73
2023-04-16T22:06:56.403Z,10.74
2023-04-16T22:09:27.190Z,10.74
2023-04-16T22:11:57.853Z,10.78
2023-04-16T22:14:26.105Z,10.82
2023-04-16T22:16:54.161Z,10.81
2023-04-16T22:19:22.323Z,10.79
2023-04-16T22:21:50.375Z,10.76
2023-04-16T22:24:18.531Z,10.72
2023-04-16T22:26:46.625Z,10.69
2023-04-16T22:29:14.739Z,10.68
2023-04-16T22:31:42.548Z,10.65
2023-04-16T22:34:10.433Z,10.61
2023-04-16T22:36:38.240Z,10.58
2023-04-16T22:39:08.780Z,10.55
2023-04-16T22:41:37.621Z,10.50
2023-04-16T22:44:05.604Z,10.45
2023-04-16T22:46:33.621Z,10.43
2023-04-16T22:49:01.508Z,10.41
2023-04-16T22:51:30.714Z,10.43
2023-04-16T22:53:58.720Z,10.43
2023-04-16T22:56:28.975Z,10.44
2023-04-16T22:58:57.410Z,10.45
2023-04-16T23:01:25.407Z,10.46
2023-04-16T23:03:53.461Z,10.47
2023-04-16T23:06:22.055Z,10.47
2023-04-16T23:08:50.095Z,10.48
2023-04-16T23:11:18.044Z,10.49
2023-04-16T23:13:46.437Z,10.49
2023-04-16T23:16:14.297Z,10.47
2023-04-16T23:18:42.427Z,10.46
2023-04-16T23:21:10.657Z,10.44
2023-04-16T23:23:38.560Z,10.40
2023-04-16T23:26:06.587Z,10.38
2023-04-16T23:28:34.761Z,10.37
2023-04-16T23:31:04.222Z,10.34
2023-04-16T23:33:34.184Z,10.31
2023-04-16T23:36:02.177Z,10.28
2023-04-16T23:38:30.132Z,10.27
2023-04-16T23:40:57.945Z,10.25
2023-04-16T23:43:25.939Z,10.25
2023-04-16T23:45:53.936Z,10.28
2023-04-16T23:48:22.079Z,10.29
2023-04-16T23:50:50.064Z,10.29
2023-04-16T23:53:18.033Z,10.29
2023-04-16T23:55:46.204Z,10.30
2023-04-16T23:58:14.107Z,10.30
